• Join FlightAware (Why Join?)
  • Login
  • US Flag 
07:28AM EDT


 

Airport Tracker/Info


-or-


 

Live Flight TrackerFlight Track Log ✈ TAM3916 ✈ 23-Jan-2014 ✈ SBSP / CGH - SBRJ / SDU

Flight Track Log - Related Links

Times and Time Zones

All times are in EST time to prevent confusion due to time zone crossing. See the TAM3916 flight status page for this flight to view local times or setup timezone preferences in your user account.

Time Position Orientation Groundspeed Altitude Reporting Facility
EST Latitude Longitude Course Direction KTS MPH feet Rate Location/Type
07:30AM -23.3085 -45.0526 78° East  Level Estimated
07:31AM -23.2937 -44.9800 77° East  Level Estimated
07:32AM -23.2788 -44.9073 77° East  Level Estimated
07:33AM -23.2639 -44.8347 77° East  Level Estimated
07:34AM -23.2489 -44.7621 77° East  Level Estimated
07:35AM -23.2339 -44.6894 77° East  Level Estimated
07:36AM -23.2189 -44.6169 77° East  Level Estimated
07:37AM -23.2039 -44.5443 77° East  Level Estimated
07:38AM -23.1888 -44.4717 77° East  Level Estimated
07:39AM -23.1737 -44.3992 77° East  Level Estimated
07:40AM -23.1585 -44.3267 77° East  Level Estimated
07:41AM -23.1434 -44.2542 77° East  Level Estimated
07:42AM -23.1281 -44.1817 77° East  Level Estimated
07:43AM -23.1129 -44.1092 77° East  Level Estimated
07:44AM -23.0976 -44.0368 77° East  Level Estimated
07:45AM -23.0823 -43.9643 77° East  Level Estimated
07:46AM -23.0669 -43.8919 77° East  Level Estimated
07:47AM -23.0515 -43.8195 77° East  Level Estimated
07:48AM -23.0361 -43.7471 77° East  Level Estimated
07:49AM -23.0207 -43.6747 77° East  Level Estimated
07:50AM -23.0052 -43.6024 77° East  Level Estimated
07:51AM -22.9897 -43.5300 77° East  Level Estimated
07:52AM -22.9741 -43.4577 77° East  Level Estimated
07:53AM -22.9586 -43.3854 77° East  Level Estimated
07:54AM -22.9430 -43.3131 77° East  Level Estimated
07:55AM -22.9273 -43.2408 77° East  Level Estimated
07:56AM -22.9116 -43.1686 77° East  Level Estimated
07:57AM -22.9105 -43.1631 77° East  Level Estimated
07:58AM -22.9105 -43.1631 250° West  Level Estimated
07:59AM -22.9105 -43.1631 250° West  Level Estimated
08:00AM -22.9105 -43.1631 250° West  Level Estimated
08:01AM -22.9105 -43.1631 250° West  Level Estimated
08:02AM -22.9105 -43.1631 250° West  Level Estimated
08:03AM -22.9105 -43.1631 250° West  Level Estimated
08:04AM -22.9105 -43.1631 250° West  Level Estimated
08:05AM -22.9105 -43.1631 250° West  Level Estimated
08:06AM -22.9105 -43.1631 250° West  Level Estimated
08:07AM -22.9105 -43.1631 250° West  Level Estimated
08:08AM -22.9105 -43.1631 250° West  Level Estimated
08:09AM -22.9105 -43.1631 250° West  Level Estimated
08:10AM -22.9105 -43.1631 250° West  Level Estimated
08:11AM -22.9105 -43.1631 250° West  Level Estimated
08:12AM -22.9105 -43.1631 250° West  Level Estimated